Terminal Aerodrome Forecast
Issued by NWS Huntsville, AL

Home | Current Version | Previous Version | Text Only | Print | Product List | Glossary On
Versions: 1 2 3 4 5 6 7 8 9 10 11 12 13 14 15 16 17 18 19 20 21 22 23 24 25 26
000
FTUS44 KHUN 302322
TAFHSV
TAF
KHSV 302322Z 0100/0124 24006KT P6SM FEW040 BKN250
     FM011400 26008KT P6SM VCSH SCT030 BKN200
      TEMPO 0116/0119 4SM TSRA BKN030CB
     FM011900 27006KT P6SM VCTS BKN050CB
      TEMPO 0120/0124 4SM TSRA BKN030CB=

USA.gov is the U.S. government's official web portal to all federal, state and local government web resources and services.